sensor_id;sensor_type;location;lat;lon;timestamp;temperature;humidity
8408;DHT22;4241;48.452;9.216;2023-09-12T00:00:12;19.10;99.90
8408;DHT22;4241;48.452;9.216;2023-09-12T00:02:40;19.10;99.90
8408;DHT22;4241;48.452;9.216;2023-09-12T00:05:07;19.20;99.90
8408;DHT22;4241;48.452;9.216;2023-09-12T00:07:35;19.10;99.90
8408;DHT22;4241;48.452;9.216;2023-09-12T00:10:01;19.20;99.90
8408;DHT22;4241;48.452;9.216;2023-09-12T00:12:28;19.20;99.90
8408;DHT22;4241;48.452;9.216;2023-09-12T00:14:55;19.10;99.90
8408;DHT22;4241;48.452;9.216;2023-09-12T00:17:22;19.10;99.90
8408;DHT22;4241;48.452;9.216;2023-09-12T00:19:50;19.10;99.90
8408;DHT22;4241;48.452;9.216;2023-09-12T00:22:17;19.10;99.90
8408;DHT22;4241;48.452;9.216;2023-09-12T00:24:43;19.10;99.90
8408;DHT22;4241;48.452;9.216;2023-09-12T00:27:10;19.00;99.90
8408;DHT22;4241;48.452;9.216;2023-09-12T00:29:37;19.10;99.90
8408;DHT22;4241;48.452;9.216;2023-09-12T00:32:04;19.00;99.90
8408;DHT22;4241;48.452;9.216;2023-09-12T00:36:59;18.80;99.90
8408;DHT22;4241;48.452;9.216;2023-09-12T00:41:53;18.90;99.90
8408;DHT22;4241;48.452;9.216;2023-09-12T00:44:20;18.90;99.90
8408;DHT22;4241;48.452;9.216;2023-09-12T00:46:48;19.00;99.90
8408;DHT22;4241;48.452;9.216;2023-09-12T00:49:16;19.00;99.90
8408;DHT22;4241;48.452;9.216;2023-09-12T00:51:44;18.90;99.90
8408;DHT22;4241;48.452;9.216;2023-09-12T00:54:12;18.80;99.90
8408;DHT22;4241;48.452;9.216;2023-09-12T00:56:39;18.90;99.90
8408;DHT22;4241;48.452;9.216;2023-09-12T00:59:06;19.00;99.90
8408;DHT22;4241;48.452;9.216;2023-09-12T01:01:33;18.90;99.90
8408;DHT22;4241;48.452;9.216;2023-09-12T01:04:01;18.90;99.90
8408;DHT22;4241;48.452;9.216;2023-09-12T01:06:29;19.00;99.90
8408;DHT22;4241;48.452;9.216;2023-09-12T01:08:58;19.00;99.90
8408;DHT22;4241;48.452;9.216;2023-09-12T01:11:26;18.90;99.90
8408;DHT22;4241;48.452;9.216;2023-09-12T01:13:53;19.00;99.90
8408;DHT22;4241;48.452;9.216;2023-09-12T01:16:20;19.00;99.90
8408;DHT22;4241;48.452;9.216;2023-09-12T01:18:47;19.00;99.90
8408;DHT22;4241;48.452;9.216;2023-09-12T01:21:36;18.90;99.90
8408;DHT22;4241;48.452;9.216;2023-09-12T01:24:24;18.90;99.90
8408;DHT22;4241;48.452;9.216;2023-09-12T01:29:51;18.90;99.90
8408;DHT22;4241;48.452;9.216;2023-09-12T01:32:20;18.80;99.90
8408;DHT22;4241;48.452;9.216;2023-09-12T01:34:47;18.80;99.90
8408;DHT22;4241;48.452;9.216;2023-09-12T01:37:14;18.80;99.90
8408;DHT22;4241;48.452;9.216;2023-09-12T01:39:41;18.80;99.90
8408;DHT22;4241;48.452;9.216;2023-09-12T01:42:11;18.80;99.90
8408;DHT22;4241;48.452;9.216;2023-09-12T01:44:41;18.70;99.90
8408;DHT22;4241;48.452;9.216;2023-09-12T01:47:11;18.90;99.90
8408;DHT22;4241;48.452;9.216;2023-09-12T01:49:40;18.70;99.90
8408;DHT22;4241;48.452;9.216;2023-09-12T01:52:09;18.80;99.90
8408;DHT22;4241;48.452;9.216;2023-09-12T01:54:37;18.70;99.90
8408;DHT22;4241;48.452;9.216;2023-09-12T01:57:05;18.80;99.90
8408;DHT22;4241;48.452;9.216;2023-09-12T01:59:32;18.70;99.90
8408;DHT22;4241;48.452;9.216;2023-09-12T02:01:59;18.70;99.90
8408;DHT22;4241;48.452;9.216;2023-09-12T02:04:27;18.70;99.90
8408;DHT22;4241;48.452;9.216;2023-09-12T02:06:54;18.80;99.90
8408;DHT22;4241;48.452;9.216;2023-09-12T02:09:21;18.70;99.90
8408;DHT22;4241;48.452;9.216;2023-09-12T02:11:49;18.70;99.90
8408;DHT22;4241;48.452;9.216;2023-09-12T02:14:15;18.70;99.90
8408;DHT22;4241;48.452;9.216;2023-09-12T02:16:43;18.60;99.90
8408;DHT22;4241;48.452;9.216;2023-09-12T02:19:10;18.60;99.90
8408;DHT22;4241;48.452;9.216;2023-09-12T02:21:38;18.60;99.90
8408;DHT22;4241;48.452;9.216;2023-09-12T02:24:06;18.50;99.90
8408;DHT22;4241;48.452;9.216;2023-09-12T02:26:33;18.60;99.90
8408;DHT22;4241;48.452;9.216;2023-09-12T02:29:02;18.60;99.90
8408;DHT22;4241;48.452;9.216;2023-09-12T02:31:29;18.60;99.90
8408;DHT22;4241;48.452;9.216;2023-09-12T02:33:56;18.60;99.90
8408;DHT22;4241;48.452;9.216;2023-09-12T02:36:22;18.50;99.90
8408;DHT22;4241;48.452;9.216;2023-09-12T02:38:51;18.50;99.90
8408;DHT22;4241;48.452;9.216;2023-09-12T02:41:18;18.40;99.90
8408;DHT22;4241;48.452;9.216;2023-09-12T02:43:45;18.50;99.90
8408;DHT22;4241;48.452;9.216;2023-09-12T02:46:11;18.50;99.90
8408;DHT22;4241;48.452;9.216;2023-09-12T02:48:38;18.50;99.90
8408;DHT22;4241;48.452;9.216;2023-09-12T02:51:05;18.40;99.90
8408;DHT22;4241;48.452;9.216;2023-09-12T02:53:32;18.40;99.90
8408;DHT22;4241;48.452;9.216;2023-09-12T02:56:00;18.40;99.90
8408;DHT22;4241;48.452;9.216;2023-09-12T02:58:27;18.30;99.90
8408;DHT22;4241;48.452;9.216;2023-09-12T03:00:54;18.30;99.90
8408;DHT22;4241;48.452;9.216;2023-09-12T03:03:21;18.40;99.90
8408;DHT22;4241;48.452;9.216;2023-09-12T03:05:47;18.40;99.90
8408;DHT22;4241;48.452;9.216;2023-09-12T03:08:14;18.40;99.90
8408;DHT22;4241;48.452;9.216;2023-09-12T03:10:41;18.50;99.90
8408;DHT22;4241;48.452;9.216;2023-09-12T03:13:11;18.40;99.90
8408;DHT22;4241;48.452;9.216;2023-09-12T03:15:38;18.40;99.90
8408;DHT22;4241;48.452;9.216;2023-09-12T03:18:09;18.30;99.90
8408;DHT22;4241;48.452;9.216;2023-09-12T03:20:38;18.30;99.90
8408;DHT22;4241;48.452;9.216;2023-09-12T03:23:04;18.30;99.90
8408;DHT22;4241;48.452;9.216;2023-09-12T03:25:35;18.20;99.90
8408;DHT22;4241;48.452;9.216;2023-09-12T03:28:03;18.30;99.90
8408;DHT22;4241;48.452;9.216;2023-09-12T03:30:32;18.30;99.90
8408;DHT22;4241;48.452;9.216;2023-09-12T03:32:59;18.30;99.90
8408;DHT22;4241;48.452;9.216;2023-09-12T03:35:28;18.10;99.90
8408;DHT22;4241;48.452;9.216;2023-09-12T03:37:55;18.20;99.90
8408;DHT22;4241;48.452;9.216;2023-09-12T03:40:22;18.30;99.90
8408;DHT22;4241;48.452;9.216;2023-09-12T03:42:48;18.20;99.90
8408;DHT22;4241;48.452;9.216;2023-09-12T03:45:15;18.30;99.90
8408;DHT22;4241;48.452;9.216;2023-09-12T03:47:43;18.30;99.90
8408;DHT22;4241;48.452;9.216;2023-09-12T03:50:12;18.30;99.90
8408;DHT22;4241;48.452;9.216;2023-09-12T03:52:39;18.40;99.90
8408;DHT22;4241;48.452;9.216;2023-09-12T03:55:07;18.30;99.90
8408;DHT22;4241;48.452;9.216;2023-09-12T03:57:34;18.40;99.90
8408;DHT22;4241;48.452;9.216;2023-09-12T04:00:01;18.20;99.90
8408;DHT22;4241;48.452;9.216;2023-09-12T04:02:29;18.30;99.90
8408;DHT22;4241;48.452;9.216;2023-09-12T04:04:57;18.20;99.90
8408;DHT22;4241;48.452;9.216;2023-09-12T04:09:52;18.40;99.90
8408;DHT22;4241;48.452;9.216;2023-09-12T04:12:18;18.30;99.90
8408;DHT22;4241;48.452;9.216;2023-09-12T04:14:45;18.20;99.90
8408;DHT22;4241;48.452;9.216;2023-09-12T04:17:12;18.30;99.90
8408;DHT22;4241;48.452;9.216;2023-09-12T04:19:39;18.30;99.90
8408;DHT22;4241;48.452;9.216;2023-09-12T04:22:07;18.30;99.90
8408;DHT22;4241;48.452;9.216;2023-09-12T04:24:34;18.20;99.90
8408;DHT22;4241;48.452;9.216;2023-09-12T04:27:00;18.20;99.90
8408;DHT22;4241;48.452;9.216;2023-09-12T04:29:28;17.80;99.90
8408;DHT22;4241;48.452;9.216;2023-09-12T04:31:55;18.10;99.90
8408;DHT22;4241;48.452;9.216;2023-09-12T04:34:25;18.20;99.90
8408;DHT22;4241;48.452;9.216;2023-09-12T04:36:52;18.30;99.90
8408;DHT22;4241;48.452;9.216;2023-09-12T04:39:20;18.30;99.90
8408;DHT22;4241;48.452;9.216;2023-09-12T04:41:47;18.20;99.90
8408;DHT22;4241;48.452;9.216;2023-09-12T04:44:13;18.30;99.90
8408;DHT22;4241;48.452;9.216;2023-09-12T04:46:40;18.30;99.90
8408;DHT22;4241;48.452;9.216;2023-09-12T04:49:07;18.30;99.90
8408;DHT22;4241;48.452;9.216;2023-09-12T04:51:34;18.20;99.90
8408;DHT22;4241;48.452;9.216;2023-09-12T04:54:01;18.20;99.90
8408;DHT22;4241;48.452;9.216;2023-09-12T04:56:29;18.30;99.90
8408;DHT22;4241;48.452;9.216;2023-09-12T04:58:56;18.30;99.90
8408;DHT22;4241;48.452;9.216;2023-09-12T05:01:23;18.40;99.90
8408;DHT22;4241;48.452;9.216;2023-09-12T05:03:51;18.30;99.90
8408;DHT22;4241;48.452;9.216;2023-09-12T05:06:17;18.30;99.90
8408;DHT22;4241;48.452;9.216;2023-09-12T05:08:44;18.30;99.90
8408;DHT22;4241;48.452;9.216;2023-09-12T05:11:11;18.20;99.90
8408;DHT22;4241;48.452;9.216;2023-09-12T05:13:39;18.30;99.90
8408;DHT22;4241;48.452;9.216;2023-09-12T05:16:06;18.20;99.90
8408;DHT22;4241;48.452;9.216;2023-09-12T05:18:33;18.30;99.90
8408;DHT22;4241;48.452;9.216;2023-09-12T05:21:00;18.40;99.90
8408;DHT22;4241;48.452;9.216;2023-09-12T05:23:33;18.30;99.90
8408;DHT22;4241;48.452;9.216;2023-09-12T05:25:59;18.30;99.90
8408;DHT22;4241;48.452;9.216;2023-09-12T05:28:26;18.20;99.90
8408;DHT22;4241;48.452;9.216;2023-09-12T05:30:55;18.40;99.90
8408;DHT22;4241;48.452;9.216;2023-09-12T05:33:21;18.40;99.90
8408;DHT22;4241;48.452;9.216;2023-09-12T05:35:48;18.50;99.90
8408;DHT22;4241;48.452;9.216;2023-09-12T05:38:15;18.50;99.90
8408;DHT22;4241;48.452;9.216;2023-09-12T05:40:42;18.50;99.90
8408;DHT22;4241;48.452;9.216;2023-09-12T05:43:08;18.60;99.90
8408;DHT22;4241;48.452;9.216;2023-09-12T05:45:35;18.60;99.90
8408;DHT22;4241;48.452;9.216;2023-09-12T05:48:04;18.70;99.90
8408;DHT22;4241;48.452;9.216;2023-09-12T05:52:58;18.90;99.90
8408;DHT22;4241;48.452;9.216;2023-09-12T05:57:52;19.20;99.90
8408;DHT22;4241;48.452;9.216;2023-09-12T06:00:19;19.00;99.90
8408;DHT22;4241;48.452;9.216;2023-09-12T06:02:46;19.20;99.90
8408;DHT22;4241;48.452;9.216;2023-09-12T06:05:14;19.40;99.90
8408;DHT22;4241;48.452;9.216;2023-09-12T06:07:41;19.50;99.90
8408;DHT22;4241;48.452;9.216;2023-09-12T06:10:09;19.70;99.90
8408;DHT22;4241;48.452;9.216;2023-09-12T06:12:35;19.70;99.90
8408;DHT22;4241;48.452;9.216;2023-09-12T06:15:03;19.90;99.90
8408;DHT22;4241;48.452;9.216;2023-09-12T06:17:30;19.90;99.90
8408;DHT22;4241;48.452;9.216;2023-09-12T06:19:56;20.00;99.90
8408;DHT22;4241;48.452;9.216;2023-09-12T06:22:25;20.20;99.90
8408;DHT22;4241;48.452;9.216;2023-09-12T06:24:52;20.30;99.90
8408;DHT22;4241;48.452;9.216;2023-09-12T06:27:19;20.40;99.90
8408;DHT22;4241;48.452;9.216;2023-09-12T06:29:46;20.40;99.90
8408;DHT22;4241;48.452;9.216;2023-09-12T06:32:13;20.50;99.90
8408;DHT22;4241;48.452;9.216;2023-09-12T06:34:40;20.70;99.90
8408;DHT22;4241;48.452;9.216;2023-09-12T06:37:07;20.60;99.90
8408;DHT22;4241;48.452;9.216;2023-09-12T06:39:35;20.80;99.90
8408;DHT22;4241;48.452;9.216;2023-09-12T06:42:02;20.70;99.90
8408;DHT22;4241;48.452;9.216;2023-09-12T06:44:29;21.00;99.90
8408;DHT22;4241;48.452;9.216;2023-09-12T06:46:56;21.00;99.90
8408;DHT22;4241;48.452;9.216;2023-09-12T06:49:22;21.10;99.90
8408;DHT22;4241;48.452;9.216;2023-09-12T06:51:49;21.10;99.90
8408;DHT22;4241;48.452;9.216;2023-09-12T06:56:44;21.20;99.90
8408;DHT22;4241;48.452;9.216;2023-09-12T06:59:11;21.30;99.90
8408;DHT22;4241;48.452;9.216;2023-09-12T07:01:38;21.30;99.90
8408;DHT22;4241;48.452;9.216;2023-09-12T07:04:05;21.50;99.90
8408;DHT22;4241;48.452;9.216;2023-09-12T07:06:32;21.40;99.90
8408;DHT22;4241;48.452;9.216;2023-09-12T07:08:59;21.40;99.90
8408;DHT22;4241;48.452;9.216;2023-09-12T07:11:26;21.20;99.90
8408;DHT22;4241;48.452;9.216;2023-09-12T07:13:54;21.30;99.90
8408;DHT22;4241;48.452;9.216;2023-09-12T07:16:20;21.40;99.90
8408;DHT22;4241;48.452;9.216;2023-09-12T07:18:48;21.50;99.90
8408;DHT22;4241;48.452;9.216;2023-09-12T07:21:16;21.30;99.90
8408;DHT22;4241;48.452;9.216;2023-09-12T07:23:43;21.30;99.90
8408;DHT22;4241;48.452;9.216;2023-09-12T07:26:12;21.30;99.90
8408;DHT22;4241;48.452;9.216;2023-09-12T07:28:39;21.20;99.90
8408;DHT22;4241;48.452;9.216;2023-09-12T07:31:07;21.30;99.90
8408;DHT22;4241;48.452;9.216;2023-09-12T07:33:34;21.40;99.90
8408;DHT22;4241;48.452;9.216;2023-09-12T07:36:01;21.40;99.90
8408;DHT22;4241;48.452;9.216;2023-09-12T07:38:28;21.40;99.90
8408;DHT22;4241;48.452;9.216;2023-09-12T07:40:56;21.40;99.90
8408;DHT22;4241;48.452;9.216;2023-09-12T07:43:23;21.70;99.90
8408;DHT22;4241;48.452;9.216;2023-09-12T07:45:55;21.70;99.90
8408;DHT22;4241;48.452;9.216;2023-09-12T07:48:23;21.70;99.90
8408;DHT22;4241;48.452;9.216;2023-09-12T07:50:50;21.80;99.90
8408;DHT22;4241;48.452;9.216;2023-09-12T07:53:17;22.00;99.90
8408;DHT22;4241;48.452;9.216;2023-09-12T07:55:44;22.10;99.90
8408;DHT22;4241;48.452;9.216;2023-09-12T08:01:33;22.40;99.90
8408;DHT22;4241;48.452;9.216;2023-09-12T08:07:24;22.50;99.90
8408;DHT22;4241;48.452;9.216;2023-09-12T08:09:51;22.70;99.90
8408;DHT22;4241;48.452;9.216;2023-09-12T08:12:19;22.90;99.90
8408;DHT22;4241;48.452;9.216;2023-09-12T08:14:46;22.90;99.90
8408;DHT22;4241;48.452;9.216;2023-09-12T08:17:13;23.00;99.90
8408;DHT22;4241;48.452;9.216;2023-09-12T08:22:08;23.30;99.90
8408;DHT22;4241;48.452;9.216;2023-09-12T08:24:40;23.30;99.90
8408;DHT22;4241;48.452;9.216;2023-09-12T08:27:07;23.50;99.90
8408;DHT22;4241;48.452;9.216;2023-09-12T08:29:34;23.50;99.90
8408;DHT22;4241;48.452;9.216;2023-09-12T08:32:01;23.70;99.90
8408;DHT22;4241;48.452;9.216;2023-09-12T08:34:28;23.90;99.90
8408;DHT22;4241;48.452;9.216;2023-09-12T08:36:55;24.20;99.90
8408;DHT22;4241;48.452;9.216;2023-09-12T08:39:24;24.20;99.90
8408;DHT22;4241;48.452;9.216;2023-09-12T08:41:53;24.70;99.90
8408;DHT22;4241;48.452;9.216;2023-09-12T08:44:20;24.70;99.90
8408;DHT22;4241;48.452;9.216;2023-09-12T08:46:47;24.80;99.90
8408;DHT22;4241;48.452;9.216;2023-09-12T08:49:15;24.90;99.90
8408;DHT22;4241;48.452;9.216;2023-09-12T08:51:42;25.30;99.90
8408;DHT22;4241;48.452;9.216;2023-09-12T08:54:10;25.30;99.90
8408;DHT22;4241;48.452;9.216;2023-09-12T08:56:39;25.70;99.90
8408;DHT22;4241;48.452;9.216;2023-09-12T08:59:09;25.70;99.90
8408;DHT22;4241;48.452;9.216;2023-09-12T09:01:36;26.00;99.90
8408;DHT22;4241;48.452;9.216;2023-09-12T09:04:05;26.00;99.90
8408;DHT22;4241;48.452;9.216;2023-09-12T09:06:32;26.30;99.90
8408;DHT22;4241;48.452;9.216;2023-09-12T09:09:04;26.30;99.90
8408;DHT22;4241;48.452;9.216;2023-09-12T09:11:31;26.60;99.90
8408;DHT22;4241;48.452;9.216;2023-09-12T09:13:58;26.50;99.90
8408;DHT22;4241;48.452;9.216;2023-09-12T09:16:26;26.80;99.90
8408;DHT22;4241;48.452;9.216;2023-09-12T09:18:54;26.80;99.90
8408;DHT22;4241;48.452;9.216;2023-09-12T09:21:22;27.00;99.90
8408;DHT22;4241;48.452;9.216;2023-09-12T09:23:51;27.20;99.90
8408;DHT22;4241;48.452;9.216;2023-09-12T09:26:18;27.30;99.90
8408;DHT22;4241;48.452;9.216;2023-09-12T09:28:45;27.50;99.90
8408;DHT22;4241;48.452;9.216;2023-09-12T09:31:13;27.80;99.90
8408;DHT22;4241;48.452;9.216;2023-09-12T09:33:41;27.70;99.90
8408;DHT22;4241;48.452;9.216;2023-09-12T09:36:14;27.80;99.90
8408;DHT22;4241;48.452;9.216;2023-09-12T09:38:41;27.90;99.90
8408;DHT22;4241;48.452;9.216;2023-09-12T09:41:08;27.90;99.90
8408;DHT22;4241;48.452;9.216;2023-09-12T09:43:35;28.00;99.90
8408;DHT22;4241;48.452;9.216;2023-09-12T09:46:03;28.20;99.90
8408;DHT22;4241;48.452;9.216;2023-09-12T09:48:29;28.50;99.90
8408;DHT22;4241;48.452;9.216;2023-09-12T09:51:02;28.50;99.90
8408;DHT22;4241;48.452;9.216;2023-09-12T09:53:29;28.60;99.90
8408;DHT22;4241;48.452;9.216;2023-09-12T09:56:08;28.80;99.90
8408;DHT22;4241;48.452;9.216;2023-09-12T09:58:35;28.90;99.90
8408;DHT22;4241;48.452;9.216;2023-09-12T10:01:05;29.00;99.90
8408;DHT22;4241;48.452;9.216;2023-09-12T10:03:34;29.10;99.90
8408;DHT22;4241;48.452;9.216;2023-09-12T10:06:04;29.00;99.90
8408;DHT22;4241;48.452;9.216;2023-09-12T10:08:32;28.90;99.90
8408;DHT22;4241;48.452;9.216;2023-09-12T10:11:01;28.90;99.90
8408;DHT22;4241;48.452;9.216;2023-09-12T10:13:30;28.80;99.90
8408;DHT22;4241;48.452;9.216;2023-09-12T10:15:59;28.90;99.90
8408;DHT22;4241;48.452;9.216;2023-09-12T10:18:29;28.90;99.90
8408;DHT22;4241;48.452;9.216;2023-09-12T10:21:05;29.00;99.90
8408;DHT22;4241;48.452;9.216;2023-09-12T10:23:37;29.30;99.90
8408;DHT22;4241;48.452;9.216;2023-09-12T10:26:09;29.50;99.90
8408;DHT22;4241;48.452;9.216;2023-09-12T10:28:37;29.50;99.90
8408;DHT22;4241;48.452;9.216;2023-09-12T10:31:07;29.70;99.90
8408;DHT22;4241;48.452;9.216;2023-09-12T10:33:34;29.70;99.90
8408;DHT22;4241;48.452;9.216;2023-09-12T10:36:03;29.80;99.90
8408;DHT22;4241;48.452;9.216;2023-09-12T10:38:32;29.80;99.00
8408;DHT22;4241;48.452;9.216;2023-09-12T10:41:00;29.80;99.90
8408;DHT22;4241;48.452;9.216;2023-09-12T10:43:29;29.90;99.90
8408;DHT22;4241;48.452;9.216;2023-09-12T10:46:01;30.20;99.90
8408;DHT22;4241;48.452;9.216;2023-09-12T10:48:30;30.10;99.90
8408;DHT22;4241;48.452;9.216;2023-09-12T10:50:57;30.20;99.90
8408;DHT22;4241;48.452;9.216;2023-09-12T10:53:31;30.30;99.90
8408;DHT22;4241;48.452;9.216;2023-09-12T10:56:00;30.30;99.90
8408;DHT22;4241;48.452;9.216;2023-09-12T10:58:27;30.30;99.90
8408;DHT22;4241;48.452;9.216;2023-09-12T11:01:22;30.50;99.90
8408;DHT22;4241;48.452;9.216;2023-09-12T11:03:49;30.40;99.90
8408;DHT22;4241;48.452;9.216;2023-09-12T11:06:27;30.50;99.90
8408;DHT22;4241;48.452;9.216;2023-09-12T11:09:19;30.50;98.60
8408;DHT22;4241;48.452;9.216;2023-09-12T11:11:48;30.40;97.80
8408;DHT22;4241;48.452;9.216;2023-09-12T11:14:16;30.30;95.20
8408;DHT22;4241;48.452;9.216;2023-09-12T11:16:43;30.40;95.40
8408;DHT22;4241;48.452;9.216;2023-09-12T11:19:43;30.50;99.90
8408;DHT22;4241;48.452;9.216;2023-09-12T11:22:22;30.70;99.70
8408;DHT22;4241;48.452;9.216;2023-09-12T11:24:50;30.70;96.20
8408;DHT22;4241;48.452;9.216;2023-09-12T11:27:17;30.70;96.30
8408;DHT22;4241;48.452;9.216;2023-09-12T11:29:44;30.80;94.50
8408;DHT22;4241;48.452;9.216;2023-09-12T11:32:25;30.70;94.50
8408;DHT22;4241;48.452;9.216;2023-09-12T11:34:52;30.90;94.00
8408;DHT22;4241;48.452;9.216;2023-09-12T11:37:23;31.00;97.40
8408;DHT22;4241;48.452;9.216;2023-09-12T11:39:53;31.00;97.40
8408;DHT22;4241;48.452;9.216;2023-09-12T11:42:20;31.20;96.10
8408;DHT22;4241;48.452;9.216;2023-09-12T11:44:49;31.10;96.80
8408;DHT22;4241;48.452;9.216;2023-09-12T11:47:16;31.10;97.20
8408;DHT22;4241;48.452;9.216;2023-09-12T11:49:43;31.20;95.00
8408;DHT22;4241;48.452;9.216;2023-09-12T11:52:11;31.20;98.90
8408;DHT22;4241;48.452;9.216;2023-09-12T11:54:39;31.30;99.20
8408;DHT22;4241;48.452;9.216;2023-09-12T11:57:09;31.30;94.10
8408;DHT22;4241;48.452;9.216;2023-09-12T11:59:39;31.00;94.50
8408;DHT22;4241;48.452;9.216;2023-09-12T12:02:07;31.00;94.70
8408;DHT22;4241;48.452;9.216;2023-09-12T12:04:35;30.80;92.70
8408;DHT22;4241;48.452;9.216;2023-09-12T12:07:02;30.80;93.20
8408;DHT22;4241;48.452;9.216;2023-09-12T12:09:30;30.90;97.00
8408;DHT22;4241;48.452;9.216;2023-09-12T12:11:57;30.90;97.50
8408;DHT22;4241;48.452;9.216;2023-09-12T12:14:28;30.90;99.40
8408;DHT22;4241;48.452;9.216;2023-09-12T12:16:54;30.90;96.80
8408;DHT22;4241;48.452;9.216;2023-09-12T12:19:22;31.00;97.00
8408;DHT22;4241;48.452;9.216;2023-09-12T12:21:48;31.00;92.60
8408;DHT22;4241;48.452;9.216;2023-09-12T12:24:15;31.10;95.20
8408;DHT22;4241;48.452;9.216;2023-09-12T12:26:42;31.10;95.40
8408;DHT22;4241;48.452;9.216;2023-09-12T12:29:10;31.20;96.10
8408;DHT22;4241;48.452;9.216;2023-09-12T12:31:38;31.20;94.20
8408;DHT22;4241;48.452;9.216;2023-09-12T12:34:06;31.20;94.40
8408;DHT22;4241;48.452;9.216;2023-09-12T12:36:33;31.30;94.90
8408;DHT22;4241;48.452;9.216;2023-09-12T12:39:10;31.30;92.70
8408;DHT22;4241;48.452;9.216;2023-09-12T12:41:37;31.40;92.70
8408;DHT22;4241;48.452;9.216;2023-09-12T12:44:04;31.30;90.90
8408;DHT22;4241;48.452;9.216;2023-09-12T12:46:32;31.30;94.30
8408;DHT22;4241;48.452;9.216;2023-09-12T12:49:00;31.10;93.30
8408;DHT22;4241;48.452;9.216;2023-09-12T12:51:28;31.10;92.80
8408;DHT22;4241;48.452;9.216;2023-09-12T12:54:03;31.00;94.50
8408;DHT22;4241;48.452;9.216;2023-09-12T12:56:31;30.70;94.80
8408;DHT22;4241;48.452;9.216;2023-09-12T12:58:59;30.70;95.30
8408;DHT22;4241;48.452;9.216;2023-09-12T13:01:28;30.70;96.20
8408;DHT22;4241;48.452;9.216;2023-09-12T13:03:55;30.60;92.80
8408;DHT22;4241;48.452;9.216;2023-09-12T13:06:24;30.60;96.10
8408;DHT22;4241;48.452;9.216;2023-09-12T13:08:52;30.70;96.40
8408;DHT22;4241;48.452;9.216;2023-09-12T13:11:19;30.50;92.50
8408;DHT22;4241;48.452;9.216;2023-09-12T13:13:47;30.50;94.70
8408;DHT22;4241;48.452;9.216;2023-09-12T13:16:15;30.60;94.90
8408;DHT22;4241;48.452;9.216;2023-09-12T13:18:42;30.40;97.90
8408;DHT22;4241;48.452;9.216;2023-09-12T13:21:09;30.40;97.80
8408;DHT22;4241;48.452;9.216;2023-09-12T13:23:38;30.30;99.90
8408;DHT22;4241;48.452;9.216;2023-09-12T13:26:06;30.30;99.40
8408;DHT22;4241;48.452;9.216;2023-09-12T13:28:33;30.20;99.50
8408;DHT22;4241;48.452;9.216;2023-09-12T13:31:00;30.30;98.10
8408;DHT22;4241;48.452;9.216;2023-09-12T13:33:27;30.20;97.00
8408;DHT22;4241;48.452;9.216;2023-09-12T13:35:54;30.30;95.50
8408;DHT22;4241;48.452;9.216;2023-09-12T13:38:20;30.20;96.20
8408;DHT22;4241;48.452;9.216;2023-09-12T13:40:50;30.30;96.30
8408;DHT22;4241;48.452;9.216;2023-09-12T13:43:16;30.40;95.60
8408;DHT22;4241;48.452;9.216;2023-09-12T13:45:44;30.40;93.70
8408;DHT22;4241;48.452;9.216;2023-09-12T13:48:10;30.30;93.00
8408;DHT22;4241;48.452;9.216;2023-09-12T13:50:38;30.20;92.30
8408;DHT22;4241;48.452;9.216;2023-09-12T13:53:05;30.20;91.80
8408;DHT22;4241;48.452;9.216;2023-09-12T13:55:32;30.20;91.20
8408;DHT22;4241;48.452;9.216;2023-09-12T13:58:02;30.20;91.40
8408;DHT22;4241;48.452;9.216;2023-09-12T14:00:29;30.00;94.00
8408;DHT22;4241;48.452;9.216;2023-09-12T14:02:56;29.90;97.30
8408;DHT22;4241;48.452;9.216;2023-09-12T14:05:23;29.50;98.00
8408;DHT22;4241;48.452;9.216;2023-09-12T14:07:50;29.30;99.20
8408;DHT22;4241;48.452;9.216;2023-09-12T14:10:18;29.40;99.40
8408;DHT22;4241;48.452;9.216;2023-09-12T14:12:44;29.40;99.90
8408;DHT22;4241;48.452;9.216;2023-09-12T14:15:13;29.30;99.90
8408;DHT22;4241;48.452;9.216;2023-09-12T14:17:40;29.30;99.90
8408;DHT22;4241;48.452;9.216;2023-09-12T14:20:08;29.20;99.90
8408;DHT22;4241;48.452;9.216;2023-09-12T14:22:36;29.10;99.90
8408;DHT22;4241;48.452;9.216;2023-09-12T14:25:03;28.90;99.90
8408;DHT22;4241;48.452;9.216;2023-09-12T14:27:30;28.90;99.90
8408;DHT22;4241;48.452;9.216;2023-09-12T14:29:57;28.60;99.90
8408;DHT22;4241;48.452;9.216;2023-09-12T14:32:26;28.40;99.90
8408;DHT22;4241;48.452;9.216;2023-09-12T14:34:53;28.50;99.90
8408;DHT22;4241;48.452;9.216;2023-09-12T14:37:20;28.40;99.90
8408;DHT22;4241;48.452;9.216;2023-09-12T14:39:48;28.20;99.90
8408;DHT22;4241;48.452;9.216;2023-09-12T14:42:15;28.20;99.90
8408;DHT22;4241;48.452;9.216;2023-09-12T14:44:41;28.00;99.90
8408;DHT22;4241;48.452;9.216;2023-09-12T14:47:08;27.90;99.90
8408;DHT22;4241;48.452;9.216;2023-09-12T14:49:36;27.90;99.90
8408;DHT22;4241;48.452;9.216;2023-09-12T14:52:04;27.80;99.90
8408;DHT22;4241;48.452;9.216;2023-09-12T14:54:31;27.70;99.90
8408;DHT22;4241;48.452;9.216;2023-09-12T14:56:58;27.60;99.90
8408;DHT22;4241;48.452;9.216;2023-09-12T14:59:24;27.40;99.90
8408;DHT22;4241;48.452;9.216;2023-09-12T15:01:51;27.40;99.90
8408;DHT22;4241;48.452;9.216;2023-09-12T15:04:18;27.30;99.90
8408;DHT22;4241;48.452;9.216;2023-09-12T15:06:46;27.00;99.90
8408;DHT22;4241;48.452;9.216;2023-09-12T15:09:13;27.10;99.90
8408;DHT22;4241;48.452;9.216;2023-09-12T15:11:40;27.10;99.90
8408;DHT22;4241;48.452;9.216;2023-09-12T15:14:07;27.00;99.90
8408;DHT22;4241;48.452;9.216;2023-09-12T15:16:33;26.90;99.90
8408;DHT22;4241;48.452;9.216;2023-09-12T15:19:01;26.90;99.90
8408;DHT22;4241;48.452;9.216;2023-09-12T15:21:28;26.70;99.90
8408;DHT22;4241;48.452;9.216;2023-09-12T15:23:56;26.60;99.90
8408;DHT22;4241;48.452;9.216;2023-09-12T15:26:23;26.60;99.90
8408;DHT22;4241;48.452;9.216;2023-09-12T15:28:50;26.60;99.90
8408;DHT22;4241;48.452;9.216;2023-09-12T15:31:17;26.50;99.90
8408;DHT22;4241;48.452;9.216;2023-09-12T15:33:44;26.40;99.90
8408;DHT22;4241;48.452;9.216;2023-09-12T15:36:11;26.40;99.90
8408;DHT22;4241;48.452;9.216;2023-09-12T15:38:38;26.40;99.90
8408;DHT22;4241;48.452;9.216;2023-09-12T15:41:06;26.40;99.90
8408;DHT22;4241;48.452;9.216;2023-09-12T15:43:33;26.30;99.90
8408;DHT22;4241;48.452;9.216;2023-09-12T15:46:01;26.30;99.90
8408;DHT22;4241;48.452;9.216;2023-09-12T15:48:28;26.10;99.90
8408;DHT22;4241;48.452;9.216;2023-09-12T15:50:55;26.10;99.90
8408;DHT22;4241;48.452;9.216;2023-09-12T15:53:22;26.10;99.90
8408;DHT22;4241;48.452;9.216;2023-09-12T15:55:49;26.10;99.90
8408;DHT22;4241;48.452;9.216;2023-09-12T15:58:19;25.80;99.90
8408;DHT22;4241;48.452;9.216;2023-09-12T16:00:45;25.90;99.90
8408;DHT22;4241;48.452;9.216;2023-09-12T16:03:12;25.70;99.90
8408;DHT22;4241;48.452;9.216;2023-09-12T16:05:39;25.80;99.90
8408;DHT22;4241;48.452;9.216;2023-09-12T16:08:07;25.60;99.90
8408;DHT22;4241;48.452;9.216;2023-09-12T16:10:34;25.60;99.90
8408;DHT22;4241;48.452;9.216;2023-09-12T16:13:00;25.60;99.90
8408;DHT22;4241;48.452;9.216;2023-09-12T16:15:29;25.70;99.90
8408;DHT22;4241;48.452;9.216;2023-09-12T16:17:55;26.00;99.90
8408;DHT22;4241;48.452;9.216;2023-09-12T16:20:24;26.50;99.90
8408;DHT22;4241;48.452;9.216;2023-09-12T16:22:51;26.10;99.90
8408;DHT22;4241;48.452;9.216;2023-09-12T16:25:18;26.30;99.90
8408;DHT22;4241;48.452;9.216;2023-09-12T16:27:45;26.20;99.90
8408;DHT22;4241;48.452;9.216;2023-09-12T16:30:12;26.10;99.90
8408;DHT22;4241;48.452;9.216;2023-09-12T16:32:40;26.00;99.90